sensor_id;sensor_type;location;lat;lon;timestamp;temperature;humidity
72128;DHT22;60000;51.030;7.024;2023-03-29T00:00:28;5.09;84.25
72128;DHT22;60000;51.030;7.024;2023-03-29T00:02:53;5.07;84.13
72128;DHT22;60000;51.030;7.024;2023-03-29T00:05:21;5.06;84.14
72128;DHT22;60000;51.030;7.024;2023-03-29T00:07:49;5.09;84.10
72128;DHT22;60000;51.030;7.024;2023-03-29T00:10:18;5.09;83.95
72128;DHT22;60000;51.030;7.024;2023-03-29T00:12:45;5.09;84.00
72128;DHT22;60000;51.030;7.024;2023-03-29T00:15:10;5.10;83.83
72128;DHT22;60000;51.030;7.024;2023-03-29T00:17:36;5.14;83.63
72128;DHT22;60000;51.030;7.024;2023-03-29T00:20:01;5.16;83.50
72128;DHT22;60000;51.030;7.024;2023-03-29T00:22:27;5.17;83.41
72128;DHT22;60000;51.030;7.024;2023-03-29T00:24:52;5.17;83.46
72128;DHT22;60000;51.030;7.024;2023-03-29T00:27:19;5.19;83.19
72128;DHT22;60000;51.030;7.024;2023-03-29T00:29:44;5.24;83.19
72128;DHT22;60000;51.030;7.024;2023-03-29T00:32:10;5.20;83.14
72128;DHT22;60000;51.030;7.024;2023-03-29T00:34:35;5.23;83.10
72128;DHT22;60000;51.030;7.024;2023-03-29T00:37:02;5.21;83.07
72128;DHT22;60000;51.030;7.024;2023-03-29T00:39:29;5.26;83.02
72128;DHT22;60000;51.030;7.024;2023-03-29T00:41:54;5.24;83.02
72128;DHT22;60000;51.030;7.024;2023-03-29T00:47:16;5.30;82.61
72128;DHT22;60000;51.030;7.024;2023-03-29T00:49:45;5.27;82.57
72128;DHT22;60000;51.030;7.024;2023-03-29T00:52:13;5.27;82.51
72128;DHT22;60000;51.030;7.024;2023-03-29T00:54:40;5.30;82.53
72128;DHT22;60000;51.030;7.024;2023-03-29T00:57:08;5.33;82.44
72128;DHT22;60000;51.030;7.024;2023-03-29T00:59:34;5.30;82.51
72128;DHT22;60000;51.030;7.024;2023-03-29T01:02:02;5.33;82.42
72128;DHT22;60000;51.030;7.024;2023-03-29T01:04:34;5.34;82.28
72128;DHT22;60000;51.030;7.024;2023-03-29T01:09:34;5.28;82.35
72128;DHT22;60000;51.030;7.024;2023-03-29T01:12:07;5.30;82.33
72128;DHT22;60000;51.030;7.024;2023-03-29T01:14:37;5.27;82.31
72128;DHT22;60000;51.030;7.024;2023-03-29T01:17:04;5.27;82.50
72128;DHT22;60000;51.030;7.024;2023-03-29T01:19:34;5.30;82.52
72128;DHT22;60000;51.030;7.024;2023-03-29T01:27:56;5.30;82.58
72128;DHT22;60000;51.030;7.024;2023-03-29T01:30:31;5.33;82.69
72128;DHT22;60000;51.030;7.024;2023-03-29T01:35:44;5.33;82.51
72128;DHT22;60000;51.030;7.024;2023-03-29T01:38:24;5.34;82.48
72128;DHT22;60000;51.030;7.024;2023-03-29T01:40:50;5.35;82.43
72128;DHT22;60000;51.030;7.024;2023-03-29T01:46:30;5.38;82.28
72128;DHT22;60000;51.030;7.024;2023-03-29T01:49:04;5.38;82.27
72128;DHT22;60000;51.030;7.024;2023-03-29T01:51:41;5.38;82.21
72128;DHT22;60000;51.030;7.024;2023-03-29T01:54:12;5.44;82.04
72128;DHT22;60000;51.030;7.024;2023-03-29T01:56:42;5.45;81.98
72128;DHT22;60000;51.030;7.024;2023-03-29T01:59:12;5.48;81.76
72128;DHT22;60000;51.030;7.024;2023-03-29T02:01:44;5.47;81.75
72128;DHT22;60000;51.030;7.024;2023-03-29T02:04:16;5.50;81.69
72128;DHT22;60000;51.030;7.024;2023-03-29T02:06:43;5.48;81.80
72128;DHT22;60000;51.030;7.024;2023-03-29T02:09:09;5.51;81.86
72128;DHT22;60000;51.030;7.024;2023-03-29T02:11:36;5.50;81.81
72128;DHT22;60000;51.030;7.024;2023-03-29T02:14:01;5.56;81.49
72128;DHT22;60000;51.030;7.024;2023-03-29T02:16:27;5.54;81.40
72128;DHT22;60000;51.030;7.024;2023-03-29T02:18:54;5.58;81.43
72128;DHT22;60000;51.030;7.024;2023-03-29T02:21:29;5.58;81.32
72128;DHT22;60000;51.030;7.024;2023-03-29T02:23:58;5.58;81.35
72128;DHT22;60000;51.030;7.024;2023-03-29T02:26:25;5.62;81.24
72128;DHT22;60000;51.030;7.024;2023-03-29T02:28:51;5.61;81.36
72128;DHT22;60000;51.030;7.024;2023-03-29T02:31:28;5.58;81.26
72128;DHT22;60000;51.030;7.024;2023-03-29T02:36:39;5.62;81.15
72128;DHT22;60000;51.030;7.024;2023-03-29T02:39:06;5.64;81.05
72128;DHT22;60000;51.030;7.024;2023-03-29T02:41:35;5.64;81.15
72128;DHT22;60000;51.030;7.024;2023-03-29T02:44:03;5.66;81.14
72128;DHT22;60000;51.030;7.024;2023-03-29T02:46:31;5.64;81.05
72128;DHT22;60000;51.030;7.024;2023-03-29T02:48:57;5.66;81.05
72128;DHT22;60000;51.030;7.024;2023-03-29T02:51:28;5.66;81.10
72128;DHT22;60000;51.030;7.024;2023-03-29T02:54:14;5.68;81.04
72128;DHT22;60000;51.030;7.024;2023-03-29T02:56:47;5.66;80.87
72128;DHT22;60000;51.030;7.024;2023-03-29T02:59:14;5.73;80.80
72128;DHT22;60000;51.030;7.024;2023-03-29T03:01:41;5.73;80.75
72128;DHT22;60000;51.030;7.024;2023-03-29T03:04:09;5.73;80.82
72128;DHT22;60000;51.030;7.024;2023-03-29T03:06:37;5.72;80.79
72128;DHT22;60000;51.030;7.024;2023-03-29T03:09:04;5.76;80.73
72128;DHT22;60000;51.030;7.024;2023-03-29T03:11:30;5.72;80.84
72128;DHT22;60000;51.030;7.024;2023-03-29T03:13:56;5.72;80.88
72128;DHT22;60000;51.030;7.024;2023-03-29T03:16:21;5.78;80.94
72128;DHT22;60000;51.030;7.024;2023-03-29T03:18:48;5.75;80.81
72128;DHT22;60000;51.030;7.024;2023-03-29T03:21:15;5.75;80.89
72128;DHT22;60000;51.030;7.024;2023-03-29T03:23:41;5.75;80.76
72128;DHT22;60000;51.030;7.024;2023-03-29T03:26:07;5.78;80.71
72128;DHT22;60000;51.030;7.024;2023-03-29T03:28:32;5.82;80.67
72128;DHT22;60000;51.030;7.024;2023-03-29T03:30:58;5.81;80.59
72128;DHT22;60000;51.030;7.024;2023-03-29T03:33:23;5.81;80.65
72128;DHT22;60000;51.030;7.024;2023-03-29T03:35:50;5.86;80.39
72128;DHT22;60000;51.030;7.024;2023-03-29T03:38:16;5.91;79.97
72128;DHT22;60000;51.030;7.024;2023-03-29T03:40:41;5.91;80.25
72128;DHT22;60000;51.030;7.024;2023-03-29T03:43:07;5.88;80.44
72128;DHT22;60000;51.030;7.024;2023-03-29T03:45:33;5.89;80.57
72128;DHT22;60000;51.030;7.024;2023-03-29T03:47:58;5.88;80.52
72128;DHT22;60000;51.030;7.024;2023-03-29T03:50:24;5.86;80.63
72128;DHT22;60000;51.030;7.024;2023-03-29T03:52:49;5.91;80.66
72128;DHT22;60000;51.030;7.024;2023-03-29T03:55:14;5.92;80.50
72128;DHT22;60000;51.030;7.024;2023-03-29T03:57:40;5.91;80.40
72128;DHT22;60000;51.030;7.024;2023-03-29T04:00:06;5.95;80.37
72128;DHT22;60000;51.030;7.024;2023-03-29T04:02:39;5.99;80.19
72128;DHT22;60000;51.030;7.024;2023-03-29T04:05:04;5.99;80.23
72128;DHT22;60000;51.030;7.024;2023-03-29T04:07:30;5.99;80.18
72128;DHT22;60000;51.030;7.024;2023-03-29T04:09:56;6.03;80.14
72128;DHT22;60000;51.030;7.024;2023-03-29T04:12:22;6.03;80.04
72128;DHT22;60000;51.030;7.024;2023-03-29T04:14:47;6.05;79.93
72128;DHT22;60000;51.030;7.024;2023-03-29T04:17:13;6.05;79.86
72128;DHT22;60000;51.030;7.024;2023-03-29T04:19:38;6.07;79.64
72128;DHT22;60000;51.030;7.024;2023-03-29T04:22:03;6.12;79.37
72128;DHT22;60000;51.030;7.024;2023-03-29T04:24:28;6.12;79.42
72128;DHT22;60000;51.030;7.024;2023-03-29T04:26:54;6.09;79.38
72128;DHT22;60000;51.030;7.024;2023-03-29T04:29:19;6.12;79.47
72128;DHT22;60000;51.030;7.024;2023-03-29T04:31:45;6.10;79.49
72128;DHT22;60000;51.030;7.024;2023-03-29T04:34:10;6.16;79.25
72128;DHT22;60000;51.030;7.024;2023-03-29T04:36:35;6.17;79.47
72128;DHT22;60000;51.030;7.024;2023-03-29T04:39:00;6.17;79.61
72128;DHT22;60000;51.030;7.024;2023-03-29T04:41:26;6.17;79.77
72128;DHT22;60000;51.030;7.024;2023-03-29T04:43:52;6.14;80.10
72128;DHT22;60000;51.030;7.024;2023-03-29T04:46:20;6.13;80.28
72128;DHT22;60000;51.030;7.024;2023-03-29T04:48:46;6.13;80.31
72128;DHT22;60000;51.030;7.024;2023-03-29T04:51:11;6.10;80.61
72128;DHT22;60000;51.030;7.024;2023-03-29T04:53:36;6.10;80.66
72128;DHT22;60000;51.030;7.024;2023-03-29T04:56:02;6.10;80.83
72128;DHT22;60000;51.030;7.024;2023-03-29T04:58:27;6.10;80.79
72128;DHT22;60000;51.030;7.024;2023-03-29T05:00:56;6.09;80.86
72128;DHT22;60000;51.030;7.024;2023-03-29T05:03:22;6.10;80.90
72128;DHT22;60000;51.030;7.024;2023-03-29T05:05:48;6.10;80.83
72128;DHT22;60000;51.030;7.024;2023-03-29T05:08:13;6.09;80.89
72128;DHT22;60000;51.030;7.024;2023-03-29T05:10:41;6.10;80.96
72128;DHT22;60000;51.030;7.024;2023-03-29T05:13:08;6.12;80.91
72128;DHT22;60000;51.030;7.024;2023-03-29T05:15:33;6.12;80.94
72128;DHT22;60000;51.030;7.024;2023-03-29T05:17:58;6.12;80.85
72128;DHT22;60000;51.030;7.024;2023-03-29T05:20:25;6.12;80.70
72128;DHT22;60000;51.030;7.024;2023-03-29T05:22:51;6.14;80.66
72128;DHT22;60000;51.030;7.024;2023-03-29T05:25:17;6.16;80.45
72128;DHT22;60000;51.030;7.024;2023-03-29T05:27:43;6.17;80.36
72128;DHT22;60000;51.030;7.024;2023-03-29T05:30:11;6.22;80.07
72128;DHT22;60000;51.030;7.024;2023-03-29T05:32:37;6.23;79.96
72128;DHT22;60000;51.030;7.024;2023-03-29T05:35:03;6.26;79.87
72128;DHT22;60000;51.030;7.024;2023-03-29T05:37:30;6.27;79.65
72128;DHT22;60000;51.030;7.024;2023-03-29T05:39:55;6.32;79.60
72128;DHT22;60000;51.030;7.024;2023-03-29T05:42:21;6.33;79.50
72128;DHT22;60000;51.030;7.024;2023-03-29T05:44:47;6.38;79.19
72128;DHT22;60000;51.030;7.024;2023-03-29T05:47:12;6.41;79.12
72128;DHT22;60000;51.030;7.024;2023-03-29T05:49:38;6.44;79.11
72128;DHT22;60000;51.030;7.024;2023-03-29T05:52:03;6.47;79.08
72128;DHT22;60000;51.030;7.024;2023-03-29T05:54:28;6.53;79.05
72128;DHT22;60000;51.030;7.024;2023-03-29T05:56:54;6.53;78.96
72128;DHT22;60000;51.030;7.024;2023-03-29T05:59:19;6.57;78.80
72128;DHT22;60000;51.030;7.024;2023-03-29T06:01:44;6.58;78.98
72128;DHT22;60000;51.030;7.024;2023-03-29T06:04:13;6.57;78.84
72128;DHT22;60000;51.030;7.024;2023-03-29T06:06:39;6.63;78.71
72128;DHT22;60000;51.030;7.024;2023-03-29T06:09:05;6.68;78.74
72128;DHT22;60000;51.030;7.024;2023-03-29T06:11:31;6.71;78.76
72128;DHT22;60000;51.030;7.024;2023-03-29T06:13:57;6.74;78.82
72128;DHT22;60000;51.030;7.024;2023-03-29T06:16:22;6.77;78.47
72128;DHT22;60000;51.030;7.024;2023-03-29T06:18:48;6.80;78.45
72128;DHT22;60000;51.030;7.024;2023-03-29T06:21:13;6.82;78.24
72128;DHT22;60000;51.030;7.024;2023-03-29T06:23:39;6.84;78.24
72128;DHT22;60000;51.030;7.024;2023-03-29T06:26:04;6.88;78.17
72128;DHT22;60000;51.030;7.024;2023-03-29T06:28:30;6.88;77.92
72128;DHT22;60000;51.030;7.024;2023-03-29T06:30:56;6.93;77.69
72128;DHT22;60000;51.030;7.024;2023-03-29T06:33:27;6.99;77.59
72128;DHT22;60000;51.030;7.024;2023-03-29T06:35:52;7.01;77.31
72128;DHT22;60000;51.030;7.024;2023-03-29T06:38:18;7.03;77.29
72128;DHT22;60000;51.030;7.024;2023-03-29T06:40:45;7.05;77.18
72128;DHT22;60000;51.030;7.024;2023-03-29T06:43:11;7.09;77.08
72128;DHT22;60000;51.030;7.024;2023-03-29T06:45:37;7.15;76.86
72128;DHT22;60000;51.030;7.024;2023-03-29T06:48:04;7.15;76.77
72128;DHT22;60000;51.030;7.024;2023-03-29T06:50:30;7.19;76.63
72128;DHT22;60000;51.030;7.024;2023-03-29T06:52:56;7.22;76.45
72128;DHT22;60000;51.030;7.024;2023-03-29T06:55:23;7.24;76.30
72128;DHT22;60000;51.030;7.024;2023-03-29T06:57:48;7.33;76.31
72128;DHT22;60000;51.030;7.024;2023-03-29T07:00:14;7.30;76.06
72128;DHT22;60000;51.030;7.024;2023-03-29T07:02:46;7.39;75.71
72128;DHT22;60000;51.030;7.024;2023-03-29T07:05:13;7.42;75.45
72128;DHT22;60000;51.030;7.024;2023-03-29T07:07:40;7.49;75.00
72128;DHT22;60000;51.030;7.024;2023-03-29T07:10:28;7.54;74.52
72128;DHT22;60000;51.030;7.024;2023-03-29T07:12:57;7.60;74.76
72128;DHT22;60000;51.030;7.024;2023-03-29T07:15:25;7.66;74.65
72128;DHT22;60000;51.030;7.024;2023-03-29T07:17:52;7.67;74.33
72128;DHT22;60000;51.030;7.024;2023-03-29T07:20:17;7.73;74.15
72128;DHT22;60000;51.030;7.024;2023-03-29T07:22:44;7.78;74.12
72128;DHT22;60000;51.030;7.024;2023-03-29T07:25:10;7.80;74.11
72128;DHT22;60000;51.030;7.024;2023-03-29T07:27:36;7.88;74.25
72128;DHT22;60000;51.030;7.024;2023-03-29T07:30:04;7.90;73.98
72128;DHT22;60000;51.030;7.024;2023-03-29T07:32:34;7.94;73.54
72128;DHT22;60000;51.030;7.024;2023-03-29T07:35:00;8.01;73.59
72128;DHT22;60000;51.030;7.024;2023-03-29T07:37:25;8.05;73.22
72128;DHT22;60000;51.030;7.024;2023-03-29T07:39:51;8.09;73.40
72128;DHT22;60000;51.030;7.024;2023-03-29T07:42:17;8.08;73.33
72128;DHT22;60000;51.030;7.024;2023-03-29T07:44:42;8.15;73.20
72128;DHT22;60000;51.030;7.024;2023-03-29T07:47:08;8.15;73.64
72128;DHT22;60000;51.030;7.024;2023-03-29T07:49:33;8.18;73.76
72128;DHT22;60000;51.030;7.024;2023-03-29T07:51:58;8.24;74.09
72128;DHT22;60000;51.030;7.024;2023-03-29T07:54:24;8.29;73.99
72128;DHT22;60000;51.030;7.024;2023-03-29T07:56:49;8.38;74.00
72128;DHT22;60000;51.030;7.024;2023-03-29T07:59:15;8.42;74.29
72128;DHT22;60000;51.030;7.024;2023-03-29T08:01:41;8.48;73.59
72128;DHT22;60000;51.030;7.024;2023-03-29T08:04:06;8.50;73.25
72128;DHT22;60000;51.030;7.024;2023-03-29T08:06:32;8.56;73.49
72128;DHT22;60000;51.030;7.024;2023-03-29T08:08:58;8.62;73.43
72128;DHT22;60000;51.030;7.024;2023-03-29T08:11:24;8.63;73.32
72128;DHT22;60000;51.030;7.024;2023-03-29T08:13:49;8.70;73.16
72128;DHT22;60000;51.030;7.024;2023-03-29T08:16:16;8.77;73.24
72128;DHT22;60000;51.030;7.024;2023-03-29T08:18:41;8.83;73.05
72128;DHT22;60000;51.030;7.024;2023-03-29T08:21:07;8.90;72.70
72128;DHT22;60000;51.030;7.024;2023-03-29T08:23:32;8.99;72.21
72128;DHT22;60000;51.030;7.024;2023-03-29T08:25:58;9.01;72.29
72128;DHT22;60000;51.030;7.024;2023-03-29T08:28:23;9.08;72.27
72128;DHT22;60000;51.030;7.024;2023-03-29T08:30:48;9.14;71.83
72128;DHT22;60000;51.030;7.024;2023-03-29T08:33:14;9.25;71.84
72128;DHT22;60000;51.030;7.024;2023-03-29T08:35:40;9.38;72.34
72128;DHT22;60000;51.030;7.024;2023-03-29T08:38:05;9.52;71.83
72128;DHT22;60000;51.030;7.024;2023-03-29T08:40:30;9.69;71.49
72128;DHT22;60000;51.030;7.024;2023-03-29T08:48:54;9.99;69.18
72128;DHT22;60000;51.030;7.024;2023-03-29T08:51:27;9.99;68.95
72128;DHT22;60000;51.030;7.024;2023-03-29T08:54:13;10.01;68.54
72128;DHT22;60000;51.030;7.024;2023-03-29T08:56:41;10.03;68.58
72128;DHT22;60000;51.030;7.024;2023-03-29T08:59:21;10.03;68.54
72128;DHT22;60000;51.030;7.024;2023-03-29T09:01:51;10.09;68.80
72128;DHT22;60000;51.030;7.024;2023-03-29T09:04:24;10.14;69.00
72128;DHT22;60000;51.030;7.024;2023-03-29T09:06:51;10.18;68.51
72128;DHT22;60000;51.030;7.024;2023-03-29T09:09:19;10.25;68.12
72128;DHT22;60000;51.030;7.024;2023-03-29T09:17:12;10.40;68.65
72128;DHT22;60000;51.030;7.024;2023-03-29T09:28:36;10.48;68.13
72128;DHT22;60000;51.030;7.024;2023-03-29T09:31:11;10.49;68.25
72128;DHT22;60000;51.030;7.024;2023-03-29T09:33:45;10.61;68.53
72128;DHT22;60000;51.030;7.024;2023-03-29T09:36:23;10.72;67.77
72128;DHT22;60000;51.030;7.024;2023-03-29T09:38:49;10.75;68.32
72128;DHT22;60000;51.030;7.024;2023-03-29T09:41:40;10.78;67.91
72128;DHT22;60000;51.030;7.024;2023-03-29T09:44:09;10.80;67.72
72128;DHT22;60000;51.030;7.024;2023-03-29T09:46:42;10.89;67.74
72128;DHT22;60000;51.030;7.024;2023-03-29T09:49:13;10.92;67.52
72128;DHT22;60000;51.030;7.024;2023-03-29T09:51:42;11.02;68.40
72128;DHT22;60000;51.030;7.024;2023-03-29T09:54:10;11.09;67.58
72128;DHT22;60000;51.030;7.024;2023-03-29T09:56:37;11.19;67.98
72128;DHT22;60000;51.030;7.024;2023-03-29T09:59:03;11.27;67.74
72128;DHT22;60000;51.030;7.024;2023-03-29T10:01:36;11.38;67.64
72128;DHT22;60000;51.030;7.024;2023-03-29T10:04:05;11.43;67.00
72128;DHT22;60000;51.030;7.024;2023-03-29T10:06:31;11.44;66.47
72128;DHT22;60000;51.030;7.024;2023-03-29T10:08:58;11.48;66.75
72128;DHT22;60000;51.030;7.024;2023-03-29T10:11:36;11.54;67.16
72128;DHT22;60000;51.030;7.024;2023-03-29T10:14:15;11.57;66.74
72128;DHT22;60000;51.030;7.024;2023-03-29T10:16:43;11.61;66.65
72128;DHT22;60000;51.030;7.024;2023-03-29T10:21:47;11.67;66.40
72128;DHT22;60000;51.030;7.024;2023-03-29T10:24:17;11.67;66.02
72128;DHT22;60000;51.030;7.024;2023-03-29T10:26:43;11.77;66.21
72128;DHT22;60000;51.030;7.024;2023-03-29T10:29:10;11.77;66.02
72128;DHT22;60000;51.030;7.024;2023-03-29T10:31:36;11.79;65.83
72128;DHT22;60000;51.030;7.024;2023-03-29T10:34:06;11.85;65.73
72128;DHT22;60000;51.030;7.024;2023-03-29T10:36:31;11.88;66.35
72128;DHT22;60000;51.030;7.024;2023-03-29T10:38:58;11.91;65.84
72128;DHT22;60000;51.030;7.024;2023-03-29T10:41:25;11.91;65.67
72128;DHT22;60000;51.030;7.024;2023-03-29T10:43:51;11.95;65.52
72128;DHT22;60000;51.030;7.024;2023-03-29T10:46:25;12.06;65.63
72128;DHT22;60000;51.030;7.024;2023-03-29T10:51:22;12.36;65.40
72128;DHT22;60000;51.030;7.024;2023-03-29T10:53:48;12.59;65.29
72128;DHT22;60000;51.030;7.024;2023-03-29T10:56:26;12.72;63.63
72128;DHT22;60000;51.030;7.024;2023-03-29T11:01:53;13.04;64.20
72128;DHT22;60000;51.030;7.024;2023-03-29T11:07:19;13.36;63.54
72128;DHT22;60000;51.030;7.024;2023-03-29T11:12:33;13.72;62.00
72128;DHT22;60000;51.030;7.024;2023-03-29T11:29:30;14.41;62.78
72128;DHT22;60000;51.030;7.024;2023-03-29T11:32:14;14.57;62.12
72128;DHT22;60000;51.030;7.024;2023-03-29T11:34:48;14.57;61.17
72128;DHT22;60000;51.030;7.024;2023-03-29T11:43:21;14.79;60.58
72128;DHT22;60000;51.030;7.024;2023-03-29T11:48:31;15.16;60.98
72128;DHT22;60000;51.030;7.024;2023-03-29T11:53:47;15.27;59.61
72128;DHT22;60000;51.030;7.024;2023-03-29T11:56:20;15.27;59.94
72128;DHT22;60000;51.030;7.024;2023-03-29T11:58:50;15.44;60.06
72128;DHT22;60000;51.030;7.024;2023-03-29T12:01:27;15.58;59.00
72128;DHT22;60000;51.030;7.024;2023-03-29T12:03:56;15.60;58.17
72128;DHT22;60000;51.030;7.024;2023-03-29T12:06:27;15.62;58.21
72128;DHT22;60000;51.030;7.024;2023-03-29T12:09:19;15.67;58.25
72128;DHT22;60000;51.030;7.024;2023-03-29T12:11:51;15.88;58.67
72128;DHT22;60000;51.030;7.024;2023-03-29T12:14:27;15.88;56.50
72128;DHT22;60000;51.030;7.024;2023-03-29T12:17:00;15.94;58.41
72128;DHT22;60000;51.030;7.024;2023-03-29T12:19:33;15.90;56.96
72128;DHT22;60000;51.030;7.024;2023-03-29T12:22:00;15.84;57.16
72128;DHT22;60000;51.030;7.024;2023-03-29T12:24:30;15.82;57.24
72128;DHT22;60000;51.030;7.024;2023-03-29T12:27:18;15.80;58.03
72128;DHT22;60000;51.030;7.024;2023-03-29T12:40:40;16.29;58.31
72128;DHT22;60000;51.030;7.024;2023-03-29T12:43:08;16.36;58.23
72128;DHT22;60000;51.030;7.024;2023-03-29T12:45:43;16.45;57.81
72128;DHT22;60000;51.030;7.024;2023-03-29T12:48:19;16.59;58.15
72128;DHT22;60000;51.030;7.024;2023-03-29T12:50:48;16.64;57.56
72128;DHT22;60000;51.030;7.024;2023-03-29T12:53:24;16.73;57.09
72128;DHT22;60000;51.030;7.024;2023-03-29T12:58:26;16.98;58.09
72128;DHT22;60000;51.030;7.024;2023-03-29T13:01:30;17.08;57.41
72128;DHT22;60000;51.030;7.024;2023-03-29T13:06:54;17.45;56.34
72128;DHT22;60000;51.030;7.024;2023-03-29T13:09:30;17.46;55.48
72128;DHT22;60000;51.030;7.024;2023-03-29T13:12:23;17.61;55.76
72128;DHT22;60000;51.030;7.024;2023-03-29T13:14:55;17.50;55.32
72128;DHT22;60000;51.030;7.024;2023-03-29T13:17:30;17.55;55.68
72128;DHT22;60000;51.030;7.024;2023-03-29T13:25:35;17.42;55.40
72128;DHT22;60000;51.030;7.024;2023-03-29T13:28:13;17.39;55.94
72128;DHT22;60000;51.030;7.024;2023-03-29T13:30:55;17.66;57.04
72128;DHT22;60000;51.030;7.024;2023-03-29T13:36:20;17.69;55.05
72128;DHT22;60000;51.030;7.024;2023-03-29T13:38:52;17.63;54.75
72128;DHT22;60000;51.030;7.024;2023-03-29T13:44:03;17.52;55.07
72128;DHT22;60000;51.030;7.024;2023-03-29T13:46:40;17.42;55.54
72128;DHT22;60000;51.030;7.024;2023-03-29T13:49:25;17.31;56.21
72128;DHT22;60000;51.030;7.024;2023-03-29T13:57:16;17.49;56.29
72128;DHT22;60000;51.030;7.024;2023-03-29T14:03:06;17.27;55.17
72128;DHT22;60000;51.030;7.024;2023-03-29T14:05:10;17.27;56.38
72128;DHT22;60000;51.030;7.024;2023-03-29T14:07:38;17.28;56.27
72128;DHT22;60000;51.030;7.024;2023-03-29T14:10:06;17.29;56.16
72128;DHT22;60000;51.030;7.024;2023-03-29T14:12:35;17.32;55.87
72128;DHT22;60000;51.030;7.024;2023-03-29T14:15:04;17.31;56.01
72128;DHT22;60000;51.030;7.024;2023-03-29T14:17:30;17.24;55.79
72128;DHT22;60000;51.030;7.024;2023-03-29T14:19:57;17.15;56.01
72128;DHT22;60000;51.030;7.024;2023-03-29T14:22:23;17.10;56.24
72128;DHT22;60000;51.030;7.024;2023-03-29T14:24:53;17.06;56.30
72128;DHT22;60000;51.030;7.024;2023-03-29T14:27:20;16.98;56.59
72128;DHT22;60000;51.030;7.024;2023-03-29T14:29:48;17.00;56.55
72128;DHT22;60000;51.030;7.024;2023-03-29T14:32:25;17.00;56.43
72128;DHT22;60000;51.030;7.024;2023-03-29T14:34:51;17.00;56.63
72128;DHT22;60000;51.030;7.024;2023-03-29T14:37:21;17.04;56.59
72128;DHT22;60000;51.030;7.024;2023-03-29T14:39:48;17.04;56.95
72128;DHT22;60000;51.030;7.024;2023-03-29T14:42:17;17.07;56.73
72128;DHT22;60000;51.030;7.024;2023-03-29T14:44:46;17.04;56.89
72128;DHT22;60000;51.030;7.024;2023-03-29T14:47:27;17.14;56.80
72128;DHT22;60000;51.030;7.024;2023-03-29T14:49:54;17.21;56.86
72128;DHT22;60000;51.030;7.024;2023-03-29T14:52:22;17.21;56.54
72128;DHT22;60000;51.030;7.024;2023-03-29T14:54:50;17.25;56.83
72128;DHT22;60000;51.030;7.024;2023-03-29T14:57:17;17.28;56.04
72128;DHT22;60000;51.030;7.024;2023-03-29T14:59:49;17.24;56.18
72128;DHT22;60000;51.030;7.024;2023-03-29T15:02:31;17.21;56.58
72128;DHT22;60000;51.030;7.024;2023-03-29T15:05:05;17.18;56.11
72128;DHT22;60000;51.030;7.024;2023-03-29T15:07:32;17.18;56.37
72128;DHT22;60000;51.030;7.024;2023-03-29T15:10:00;17.18;56.58
72128;DHT22;60000;51.030;7.024;2023-03-29T15:12:30;17.18;56.77
72128;DHT22;60000;51.030;7.024;2023-03-29T15:14:56;17.18;56.56
72128;DHT22;60000;51.030;7.024;2023-03-29T15:17:34;17.15;56.15
72128;DHT22;60000;51.030;7.024;2023-03-29T15:20:05;17.11;56.58
72128;DHT22;60000;51.030;7.024;2023-03-29T15:22:38;17.08;56.66
72128;DHT22;60000;51.030;7.024;2023-03-29T15:25:18;17.06;56.32
72128;DHT22;60000;51.030;7.024;2023-03-29T15:27:44;16.98;56.17
72128;DHT22;60000;51.030;7.024;2023-03-29T15:30:14;16.92;56.73
72128;DHT22;60000;51.030;7.024;2023-03-29T15:32:40;16.85;56.82
72128;DHT22;60000;51.030;7.024;2023-03-29T15:35:19;16.80;57.27
72128;DHT22;60000;51.030;7.024;2023-03-29T15:37:44;16.76;56.97
72128;DHT22;60000;51.030;7.024;2023-03-29T15:40:14;16.67;57.31
72128;DHT22;60000;51.030;7.024;2023-03-29T15:42:39;16.63;57.71
72128;DHT22;60000;51.030;7.024;2023-03-29T15:45:05;16.59;58.28
72128;DHT22;60000;51.030;7.024;2023-03-29T15:47:31;16.56;58.21
72128;DHT22;60000;51.030;7.024;2023-03-29T15:49:56;16.56;58.18
72128;DHT22;60000;51.030;7.024;2023-03-29T15:52:22;16.52;58.32
72128;DHT22;60000;51.030;7.024;2023-03-29T15:54:47;16.50;58.56
72128;DHT22;60000;51.030;7.024;2023-03-29T15:57:14;16.46;58.32
72128;DHT22;60000;51.030;7.024;2023-03-29T15:59:41;16.45;58.56
72128;DHT22;60000;51.030;7.024;2023-03-29T16:02:11;16.42;58.99
72128;DHT22;60000;51.030;7.024;2023-03-29T16:04:37;16.40;58.97
72128;DHT22;60000;51.030;7.024;2023-03-29T16:07:08;16.43;58.61
72128;DHT22;60000;51.030;7.024;2023-03-29T16:09:35;16.39;58.97
72128;DHT22;60000;51.030;7.024;2023-03-29T16:12:01;16.36;59.10
72128;DHT22;60000;51.030;7.024;2023-03-29T16:14:28;16.33;59.18
72128;DHT22;60000;51.030;7.024;2023-03-29T16:16:58;16.33;59.32
72128;DHT22;60000;51.030;7.024;2023-03-29T16:19:25;16.34;59.17
72128;DHT22;60000;51.030;7.024;2023-03-29T16:21:50;16.33;59.30
72128;DHT22;60000;51.030;7.024;2023-03-29T16:24:19;16.43;58.72
72128;DHT22;60000;51.030;7.024;2023-03-29T16:26:46;16.40;58.87
72128;DHT22;60000;51.030;7.024;2023-03-29T16:29:11;16.39;58.88
72128;DHT22;60000;51.030;7.024;2023-03-29T16:31:37;16.36;59.07
72128;DHT22;60000;51.030;7.024;2023-03-29T16:34:04;16.36;59.46
72128;DHT22;60000;51.030;7.024;2023-03-29T16:36:30;16.34;59.68
72128;DHT22;60000;51.030;7.024;2023-03-29T16:38:57;16.34;60.19
72128;DHT22;60000;51.030;7.024;2023-03-29T16:41:22;16.32;60.59
72128;DHT22;60000;51.030;7.024;2023-03-29T16:43:48;16.29;60.80
72128;DHT22;60000;51.030;7.024;2023-03-29T16:46:13;16.29;61.26
72128;DHT22;60000;51.030;7.024;2023-03-29T16:48:40;16.25;61.69
72128;DHT22;60000;51.030;7.024;2023-03-29T16:51:06;16.19;62.03
72128;DHT22;60000;51.030;7.024;2023-03-29T16:53:32;16.18;62.34
72128;DHT22;60000;51.030;7.024;2023-03-29T16:55:58;16.13;62.67
72128;DHT22;60000;51.030;7.024;2023-03-29T16:58:23;16.12;62.93
72128;DHT22;60000;51.030;7.024;2023-03-29T17:00:49;16.08;63.12
72128;DHT22;60000;51.030;7.024;2023-03-29T17:03:16;16.06;63.44
72128;DHT22;60000;51.030;7.024;2023-03-29T17:05:52;16.05;63.71
72128;DHT22;60000;51.030;7.024;2023-03-29T17:08:20;16.02;64.09
72128;DHT22;60000;51.030;7.024;2023-03-29T17:10:51;16.02;64.34
72128;DHT22;60000;51.030;7.024;2023-03-29T17:13:16;15.98;64.54
72128;DHT22;60000;51.030;7.024;2023-03-29T17:15:42;15.98;64.62
72128;DHT22;60000;51.030;7.024;2023-03-29T17:18:08;15.95;65.04
72128;DHT22;60000;51.030;7.024;2023-03-29T17:20:33;15.91;65.26
72128;DHT22;60000;51.030;7.024;2023-03-29T17:22:58;15.88;65.59
72128;DHT22;60000;51.030;7.024;2023-03-29T17:25:24;15.87;66.01
72128;DHT22;60000;51.030;7.024;2023-03-29T17:27:49;15.85;66.37
72128;DHT22;60000;51.030;7.024;2023-03-29T17:30:16;15.82;66.81
72128;DHT22;60000;51.030;7.024;2023-03-29T17:32:41;15.82;66.86
72128;DHT22;60000;51.030;7.024;2023-03-29T17:35:08;15.80;67.24
72128;DHT22;60000;51.030;7.024;2023-03-29T17:37:33;15.80;67.53
72128;DHT22;60000;51.030;7.024;2023-03-29T17:39:59;15.77;67.98
72128;DHT22;60000;51.030;7.024;2023-03-29T17:42:24;15.75;68.05